createdAt,value
2023-04-18T09:08:44.947Z,95244.72
2023-04-18T09:11:29.000Z,95262.34
2023-04-18T09:14:10.764Z,95262.22
2023-04-18T09:16:47.425Z,95260.63
2023-04-18T09:19:18.992Z,95235.81
2023-04-18T09:21:47.409Z,95246.53
2023-04-18T09:24:26.538Z,95252.69
2023-04-18T09:26:56.162Z,95231.94
2023-04-18T09:29:41.830Z,95241.22
2023-04-18T09:32:09.891Z,95235.88
2023-04-18T09:34:42.704Z,95228.72
2023-04-18T09:37:12.294Z,95225.59
2023-04-18T09:39:42.719Z,95231.13
2023-04-18T09:42:11.131Z,95211.19
2023-04-18T09:44:57.590Z,95211.19
2023-04-18T09:47:27.005Z,95215.59
2023-04-18T09:49:54.602Z,95215.16
2023-04-18T09:52:25.152Z,95207.56
2023-04-18T09:54:58.825Z,95215.88
2023-04-18T09:57:31.507Z,95218.72
2023-04-18T10:00:01.941Z,95221.75
2023-04-18T10:02:39.169Z,95198.22
2023-04-18T10:05:08.447Z,95230.41
2023-04-18T10:07:37.052Z,95230.22
2023-04-18T10:10:04.712Z,95240.56
2023-04-18T10:12:33.562Z,95239.56
2023-04-18T10:15:01.393Z,95237.09
2023-04-18T10:17:29.551Z,95230.88
2023-04-18T10:20:16.531Z,95229.34
2023-04-18T10:22:44.550Z,95234.88
2023-04-18T10:25:11.856Z,95222.13
2023-04-18T10:27:48.868Z,95223.94
2023-04-18T10:30:17.096Z,95203.09
2023-04-18T10:32:47.732Z,95219.41
2023-04-18T10:35:15.252Z,95215.63
2023-04-18T10:37:59.956Z,95211.22
2023-04-18T10:40:34.773Z,95233.28
2023-04-18T10:43:02.568Z,95215.34
2023-04-18T10:45:33.673Z,95213.72
2023-04-18T10:48:32.897Z,95212.38
2023-04-18T10:51:14.229Z,95215.63
2023-04-18T10:53:49.048Z,95212.84
2023-04-18T10:56:16.936Z,95205.09
2023-04-18T10:58:50.250Z,95211.94
2023-04-18T11:01:28.619Z,95211.50
2023-04-18T11:04:01.808Z,95214.19
2023-04-18T11:06:30.559Z,95228.69
2023-04-18T11:09:14.375Z,95215.06
2023-04-18T11:11:42.604Z,95214.25
2023-04-18T11:14:10.758Z,95214.53
2023-04-18T11:16:41.124Z,95229.59
2023-04-18T11:19:23.537Z,95227.66
2023-04-18T11:21:51.981Z,95229.00
2023-04-18T11:24:23.646Z,95230.66
2023-04-18T11:26:56.192Z,95227.81
2023-04-18T11:29:26.555Z,95221.84
2023-04-18T11:31:56.879Z,95209.38
2023-04-18T11:34:30.908Z,95222.91
2023-04-18T11:36:58.391Z,95218.94
2023-04-18T11:39:26.109Z,95218.59
2023-04-18T11:41:56.587Z,95217.69
2023-04-18T11:44:25.272Z,95213.84
2023-04-18T11:46:53.585Z,95208.84
2023-04-18T11:49:28.701Z,95200.50
2023-04-18T11:51:56.621Z,95216.16
2023-04-18T11:54:41.509Z,95206.25
2023-04-18T11:57:29.215Z,95199.44
2023-04-18T11:59:59.371Z,95205.38
2023-04-18T12:02:39.898Z,95211.84
2023-04-18T12:05:08.232Z,95218.53
2023-04-18T12:07:44.669Z,95213.84
2023-04-18T12:10:29.779Z,95209.97
2023-04-18T12:13:01.300Z,95218.13
2023-04-18T12:15:30.194Z,95216.78
2023-04-18T12:18:00.655Z,95206.84
2023-04-18T12:20:38.265Z,95217.31
2023-04-18T12:23:06.283Z,95226.28
2023-04-18T12:25:34.993Z,95218.88
2023-04-18T12:28:04.867Z,95220.69
2023-04-18T12:30:37.468Z,95218.38
2023-04-18T12:33:05.300Z,95220.56
2023-04-18T12:35:33.095Z,95223.50
2023-04-18T12:38:02.478Z,95222.28
2023-04-18T12:40:30.516Z,95221.66
2023-04-18T12:42:57.751Z,95219.66
2023-04-18T12:45:26.017Z,95219.28
2023-04-18T12:47:53.949Z,95219.78
2023-04-18T12:50:24.055Z,95218.28
2023-04-18T12:52:53.680Z,95214.38
2023-04-18T12:55:22.933Z,95212.16
2023-04-18T12:57:56.655Z,95207.47
2023-04-18T13:00:26.510Z,95219.72
2023-04-18T13:02:53.970Z,95214.00
2023-04-18T13:05:23.852Z,95204.44
2023-04-18T13:07:58.642Z,95215.44
2023-04-18T13:10:29.680Z,95217.81
2023-04-18T13:12:57.231Z,95213.44
2023-04-18T13:15:25.049Z,95208.09
2023-04-18T13:17:52.454Z,95202.84
2023-04-18T13:20:20.560Z,95209.19
2023-04-18T13:22:48.172Z,95206.38
2023-04-18T13:25:16.847Z,95215.59
2023-04-18T13:27:46.466Z,95203.09
2023-04-18T13:30:14.146Z,95204.44
2023-04-18T13:32:43.059Z,95208.03
2023-04-18T13:35:11.415Z,95191.63
2023-04-18T13:37:39.586Z,95197.78
2023-04-18T13:40:08.157Z,95200.66
2023-04-18T13:42:37.288Z,95202.13
2023-04-18T13:45:07.918Z,95209.09
2023-04-18T13:47:35.321Z,95196.78
2023-04-18T13:50:02.923Z,95197.63
2023-04-18T13:52:30.329Z,95208.75
2023-04-18T13:54:58.003Z,95210.84
2023-04-18T13:57:25.364Z,95203.78
2023-04-18T13:59:52.951Z,95212.50
2023-04-18T14:02:22.881Z,95218.84
2023-04-18T14:04:52.281Z,95217.19
2023-04-18T14:07:19.642Z,95213.94
2023-04-18T14:09:48.454Z,95208.16
2023-04-18T14:12:15.983Z,95209.78
2023-04-18T14:14:43.540Z,95201.81
2023-04-18T14:17:10.875Z,95220.28
2023-04-18T14:19:38.576Z,95214.22
2023-04-18T14:22:07.378Z,95216.50
2023-04-18T14:24:38.045Z,95218.41
2023-04-18T14:27:10.449Z,95222.44
2023-04-18T14:29:38.306Z,95213.63
2023-04-18T14:32:07.201Z,95209.13
2023-04-18T14:34:36.637Z,95218.44
2023-04-18T14:37:05.055Z,95214.22
2023-04-18T14:39:32.726Z,95210.81
2023-04-18T14:41:59.987Z,95200.94
2023-04-18T14:44:28.189Z,95218.13
2023-04-18T14:46:55.719Z,95222.44
2023-04-18T14:49:23.544Z,95214.41
2023-04-18T14:51:51.082Z,95210.16
2023-04-18T14:54:19.304Z,95209.38
2023-04-18T14:56:46.573Z,95216.72
2023-04-18T14:59:16.718Z,95215.59
2023-04-18T15:01:44.616Z,95220.66
2023-04-18T15:04:12.860Z,95211.75
2023-04-18T15:06:42.165Z,95227.47
2023-04-18T15:09:09.735Z,95227.31
2023-04-18T15:11:38.528Z,95217.75
2023-04-18T15:14:06.232Z,95222.03
2023-04-18T15:16:35.419Z,95211.41
2023-04-18T15:19:03.029Z,95213.88
2023-04-18T15:21:30.357Z,95215.75
2023-04-18T15:23:59.184Z,95222.69
2023-04-18T15:26:27.246Z,95220.50
2023-04-18T15:28:55.500Z,95217.75
2023-04-18T15:31:24.072Z,95223.16
2023-04-18T15:33:52.071Z,95212.13
2023-04-18T15:36:19.605Z,95221.25
2023-04-18T15:38:49.903Z,95221.56
2023-04-18T15:41:17.158Z,95224.47
2023-04-18T15:43:45.825Z,95219.56
2023-04-18T15:46:13.117Z,95227.19
2023-04-18T15:48:40.815Z,95224.75
2023-04-18T15:51:08.403Z,95222.38
2023-04-18T15:53:36.070Z,95226.31
2023-04-18T15:56:04.393Z,95227.50
2023-04-18T15:58:35.478Z,95227.28
2023-04-18T16:01:03.530Z,95227.13
2023-04-18T16:03:31.996Z,95229.63
2023-04-18T16:05:59.581Z,95224.75
2023-04-18T16:08:27.293Z,95228.75
2023-04-18T16:10:54.669Z,95235.56
2023-04-18T16:13:22.215Z,95228.75
2023-04-18T16:15:49.769Z,95235.38
2023-04-18T16:18:17.548Z,95228.09
2023-04-18T16:20:45.056Z,95226.78
2023-04-18T16:23:12.986Z,95233.34
2023-04-18T16:25:40.441Z,95233.44
2023-04-18T16:28:08.396Z,95233.69
2023-04-18T16:30:36.091Z,95227.19
2023-04-18T16:33:04.157Z,95232.97
2023-04-18T16:35:32.075Z,95236.09
2023-04-18T16:38:00.142Z,95221.75
2023-04-18T16:40:30.739Z,95242.59
2023-04-18T16:42:59.061Z,95231.78
2023-04-18T16:45:26.693Z,95237.84
2023-04-18T16:47:55.198Z,95236.69
2023-04-18T16:50:23.081Z,95242.25
2023-04-18T16:52:50.819Z,95239.34
2023-04-18T16:55:18.449Z,95241.59
2023-04-18T16:57:47.454Z,95240.47
2023-04-18T17:00:15.257Z,95232.03
2023-04-18T17:02:44.121Z,95224.03
2023-04-18T17:05:12.136Z,95222.41
2023-04-18T17:07:40.066Z,95238.84
2023-04-18T17:10:09.963Z,95225.09
2023-04-18T17:12:38.047Z,95234.38
2023-04-18T17:15:05.957Z,95232.75
2023-04-18T17:17:33.803Z,95228.00
2023-04-18T17:20:01.556Z,95235.31
2023-04-18T17:22:29.704Z,95236.44
2023-04-18T17:24:57.050Z,95238.09
2023-04-18T17:27:24.764Z,95243.19
2023-04-18T17:29:52.066Z,95238.97
2023-04-18T17:32:19.847Z,95245.84
2023-04-18T17:34:47.434Z,95252.91
2023-04-18T17:44:51.125Z,95249.72
2023-04-18T17:47:18.799Z,95246.75
2023-04-18T17:49:46.254Z,95249.41
2023-04-18T17:52:13.895Z,95256.13
2023-04-18T17:54:41.419Z,95257.44
2023-04-18T17:57:09.020Z,95253.69
2023-04-18T17:59:37.938Z,95228.41
2023-04-18T18:02:05.921Z,95251.56
2023-04-18T18:04:33.478Z,95256.94
2023-04-18T18:07:01.444Z,95242.41
2023-04-18T18:09:28.674Z,95254.81
2023-04-18T18:11:57.147Z,95257.22
2023-04-18T18:14:24.742Z,95250.81
2023-04-18T18:16:52.470Z,95253.78
2023-04-18T18:19:21.142Z,95255.34
2023-04-18T18:21:49.004Z,95254.84
2023-04-18T18:24:16.570Z,95250.00
2023-04-18T18:26:44.594Z,95262.38
2023-04-18T18:40:32.613Z,95267.84
2023-04-18T18:43:01.075Z,95254.75
2023-04-18T18:45:28.572Z,95258.31
2023-04-18T18:47:56.315Z,95260.72
2023-04-18T18:50:24.601Z,95260.75
2023-04-18T18:52:52.604Z,95261.00
2023-04-18T18:55:20.107Z,95252.69
2023-04-18T18:57:48.162Z,95259.69
2023-04-18T19:00:16.648Z,95244.91
2023-04-18T19:02:46.623Z,95257.78
2023-04-18T19:05:14.241Z,95255.34
2023-04-18T19:07:42.694Z,95247.56
2023-04-18T19:10:10.978Z,95250.81
2023-04-18T19:12:38.716Z,95237.88
2023-04-18T19:15:07.970Z,95246.53
2023-04-18T19:17:36.052Z,95240.59
2023-04-18T19:20:03.889Z,95246.78
2023-04-18T19:22:31.903Z,95245.16
2023-04-18T19:25:01.200Z,95223.91
2023-04-18T19:27:29.136Z,95234.94
2023-04-18T19:29:56.505Z,95220.41
2023-04-18T19:32:24.533Z,95220.41
2023-04-18T19:34:53.374Z,95229.59
2023-04-18T19:37:21.383Z,95213.97
2023-04-18T19:39:52.095Z,95227.41
2023-04-18T19:42:20.773Z,95223.41
2023-04-18T19:44:48.324Z,95226.63
2023-04-18T19:47:16.104Z,95221.22
2023-04-18T19:49:44.738Z,95229.03
2023-04-18T19:52:12.651Z,95202.97
2023-04-18T19:54:40.165Z,95225.81
2023-04-18T19:57:08.366Z,95227.66
2023-04-18T19:59:36.033Z,95230.06
2023-04-18T20:02:05.912Z,95228.47
2023-04-18T20:04:37.401Z,95219.31
2023-04-18T20:07:05.898Z,95225.22
2023-04-18T20:09:36.109Z,95213.38
2023-04-18T20:12:04.065Z,95216.53
2023-04-18T20:14:32.540Z,95229.22
2023-04-18T20:17:00.502Z,95223.63
2023-04-18T20:19:29.980Z,95215.56
2023-04-18T20:21:57.906Z,95211.81
2023-04-18T20:24:28.399Z,95212.34
2023-04-18T20:26:59.642Z,95207.50
2023-04-18T20:29:27.099Z,95207.22
2023-04-18T20:31:54.930Z,95212.06
2023-04-18T20:34:22.475Z,95210.19
2023-04-18T20:36:52.700Z,95211.03
2023-04-18T20:39:23.205Z,95209.41
2023-04-18T20:41:51.627Z,95194.56
2023-04-18T20:44:22.227Z,95213.91
2023-04-18T20:46:52.283Z,95208.00
2023-04-18T20:49:19.991Z,95203.75
2023-04-18T20:51:50.536Z,95191.16
2023-04-18T20:54:18.083Z,95196.78
2023-04-18T20:56:46.100Z,95194.09
2023-04-18T20:59:13.557Z,95176.63
2023-04-18T21:01:41.513Z,95188.44
2023-04-18T21:04:09.030Z,95186.84
2023-04-18T21:06:36.953Z,95185.78
2023-04-18T21:09:04.436Z,95172.06
2023-04-18T21:11:32.265Z,95182.81
2023-04-18T21:13:59.770Z,95176.38
2023-04-18T21:16:27.791Z,95178.53
2023-04-18T21:18:55.518Z,95173.69
2023-04-18T21:21:23.294Z,95167.22
2023-04-18T21:23:50.885Z,95169.41
2023-04-18T21:26:19.137Z,95167.53
2023-04-18T21:28:53.600Z,95167.78
2023-04-18T21:31:21.313Z,95166.16
2023-04-18T21:33:52.328Z,95156.22
2023-04-18T21:36:20.349Z,95153.81
2023-04-18T21:38:47.804Z,95150.88
2023-04-18T21:41:17.078Z,95160.00
2023-04-18T21:43:44.593Z,95151.97
2023-04-18T21:46:12.853Z,95152.22
2023-04-18T21:48:41.121Z,95146.31
2023-04-18T21:51:10.583Z,95146.84
2023-04-18T21:53:39.132Z,95141.75
2023-04-18T21:56:09.745Z,95143.06
2023-04-18T21:58:39.478Z,95137.47
2023-04-18T22:01:07.359Z,95143.63
2023-04-18T22:03:35.210Z,95143.34
2023-04-18T22:06:03.065Z,95138.25
2023-04-18T22:08:31.299Z,95141.47
2023-04-18T22:11:00.490Z,95121.63
2023-04-18T22:13:34.901Z,95117.56
2023-04-18T22:16:03.756Z,95123.22
2023-04-18T22:18:34.145Z,95123.75
2023-04-18T22:21:03.559Z,95121.88
2023-04-18T22:23:30.991Z,95118.41
2023-04-18T22:26:01.799Z,95119.44
2023-04-18T22:28:29.450Z,95095.28
2023-04-18T22:30:57.309Z,95110.88
2023-04-18T22:33:24.892Z,95107.09
2023-04-18T22:35:52.858Z,95102.25
2023-04-18T22:38:20.130Z,95085.63
2023-04-18T22:40:47.770Z,95098.50
2023-04-18T22:43:14.926Z,95090.69
2023-04-18T22:45:42.453Z,95094.97
2023-04-18T22:48:12.416Z,95092.50
2023-04-18T22:50:44.883Z,95088.50
2023-04-18T22:53:12.475Z,95085.00
2023-04-18T22:55:44.131Z,95095.72
2023-04-18T22:58:12.080Z,95074.22
2023-04-18T23:00:39.792Z,95093.00
2023-04-18T23:03:07.253Z,95084.16
2023-04-18T23:05:35.543Z,95078.50
2023-04-18T23:08:02.894Z,95075.00
2023-04-18T23:10:30.520Z,95069.31
2023-04-18T23:12:57.993Z,95065.47
2023-04-18T23:15:26.501Z,95059.03
2023-04-18T23:17:54.378Z,95052.88
2023-04-18T23:20:22.392Z,95058.56
2023-04-18T23:35:04.301Z,95041.84
2023-04-18T23:37:32.039Z,95046.19
2023-04-18T23:40:02.786Z,95027.03
2023-04-18T23:42:30.388Z,95024.72
2023-04-18T23:44:59.086Z,95020.16
2023-04-18T23:47:26.690Z,95032.41
2023-04-18T23:49:53.945Z,95030.22
2023-04-18T23:52:21.528Z,95029.16
2023-04-18T23:54:51.986Z,95028.09
2023-04-18T23:57:22.640Z,94998.13
2023-04-18T23:59:49.837Z,95012.84
